McAdoo, Texas
Current Conditions -  °F | °C
As of 1:53 PM on Wednesday 28 Jan 2015 (Local Time) from KLBB Reporting Station
Scattered Clouds Scattered Clouds  
Wind Chill: 75°   Ceiling: Unl
Heat Index: 75°   Visibility: 10mi
Dew Point: 34°   Wind: 26mph
Humidity: 22%   Direction: 270°W
Pressure: 30.02"   Gusts: 33mph
Location:  33.73°N, 101.01°W
Report Text: KLBB 281953Z 27023G29KT 10SM FEW250 SCT300 24/01 A3002 RMK AO2 PK WND 26031/1922 SLP137 T02390011
Loading
Personal Weather Stations






























Interactive Weather Map New forecast layout! Learn more

10-Day Weather Forecast

Advertisements
Track Severe Weather on mobile